Time;durP1;ratioP1;P1;durP2;ratioP2;P2;SDS_P1;SDS_P2;PMS_P1;PMS_P2;Temp;Humidity;BMP_temperature;BMP_pressure;BME280_temperature;BME280_humidity;BME280_pressure;Samples;Min_cycle;Max_cycle;Signal;HPM_P1;HPM_P2
2023/03/06 00:00:02;;;;;;;13.15;5.60;;;;;;;;;;8427176;28;20410;-80
2023/03/06 00:04:07;;;;;;;40.15;14.60;;;;;;;;;;8407365;28;20040;-81
2023/03/06 00:08:10;;;;;;;14.82;6.22;;;;;;;;;;8432884;28;20044;-81
2023/03/06 00:12:13;;;;;;;48.33;15.63;;;;;;;;;;8433569;28;20475;-81
2023/03/06 00:16:15;;;;;;;30.35;12.52;;;;;;;;;;8431930;28;20399;-81
2023/03/06 00:20:20;;;;;;;25.75;9.00;;;;;;;;;;8433068;28;20403;-80
2023/03/06 00:24:23;;;;;;;28.85;11.30;;;;;;;;;;8421474;28;20044;-81
2023/03/06 00:28:26;;;;;;;23.67;9.57;;;;;;;;;;8413899;28;20536;-79
2023/03/06 00:32:29;;;;;;;21.50;8.13;;;;;;;;;;8432125;28;20044;-80
2023/03/06 00:36:33;;;;;;;23.20;8.18;;;;;;;;;;8432646;28;20399;-81
2023/03/06 00:40:36;;;;;;;14.57;6.28;;;;;;;;;;8432378;28;20476;-81
2023/03/06 00:44:39;;;;;;;18.30;7.05;;;;;;;;;;8414649;28;20437;-82
2023/03/06 00:48:42;;;;;;;14.38;6.43;;;;;;;;;;8418975;28;20051;-82
2023/03/06 00:52:46;;;;;;;20.33;7.88;;;;;;;;;;8405478;28;20051;-81
2023/03/06 00:56:49;;;;;;;15.35;8.50;;;;;;;;;;8431753;28;20044;-80
2023/03/06 01:00:52;;;;;;;18.52;7.93;;;;;;;;;;8430133;28;20047;-81
2023/03/06 01:04:55;;;;;;;21.20;8.27;;;;;;;;;;8412731;28;20040;-83
2023/03/06 01:08:59;;;;;;;16.35;7.18;;;;;;;;;;8423277;28;20138;-83
2023/03/06 01:13:02;;;;;;;17.42;7.47;;;;;;;;;;8406316;28;20040;-80
2023/03/06 01:17:05;;;;;;;13.25;6.47;;;;;;;;;;8415493;28;20468;-82
2023/03/06 01:21:08;;;;;;;16.60;6.47;;;;;;;;;;8421409;28;20064;-79
2023/03/06 01:25:13;;;;;;;12.02;5.90;;;;;;;;;;8427925;28;20044;-82
2023/03/06 01:29:15;;;;;;;22.02;7.50;;;;;;;;;;8417851;28;20483;-85
2023/03/06 01:33:19;;;;;;;13.07;7.13;;;;;;;;;;8416901;28;20457;-81
2023/03/06 01:37:22;;;;;;;23.83;8.18;;;;;;;;;;8423252;28;20488;-82
2023/03/06 01:41:26;;;;;;;15.80;7.38;;;;;;;;;;8391305;28;20045;-82
2023/03/06 01:46:21;;;;;;;20.42;7.05;;;;;;;;;;8421879;28;20052;-81
2023/03/06 01:50:23;;;;;;;14.68;6.88;;;;;;;;;;8261929;28;20593;-85
2023/03/06 01:54:31;;;;;;;15.45;7.15;;;;;;;;;;8265744;28;20141;-83
2023/03/06 01:58:35;;;;;;;25.42;8.25;;;;;;;;;;8262424;28;20139;-81
2023/03/06 02:02:39;;;;;;;20.48;7.97;;;;;;;;;;8270131;28;20393;-81
2023/03/06 02:06:43;;;;;;;14.50;7.57;;;;;;;;;;8285934;28;20042;-82
2023/03/06 02:10:58;;;;;;;17.85;7.22;;;;;;;;;;8292705;28;20049;-83
2023/03/06 02:15:03;;;;;;;17.58;6.40;;;;;;;;;;8288031;28;20506;-83
2023/03/06 02:19:08;;;;;;;15.15;6.70;;;;;;;;;;8310365;28;20056;-81
2023/03/06 02:23:16;;;;;;;21.95;8.23;;;;;;;;;;8407219;28;20094;-82
2023/03/06 02:27:22;;;;;;;16.92;8.30;;;;;;;;;;8407239;28;20036;-83
2023/03/06 02:31:29;;;;;;;16.60;7.85;;;;;;;;;;8416425;28;20047;-83
2023/03/06 02:35:33;;;;;;;17.02;7.20;;;;;;;;;;8405365;28;20071;-83
2023/03/06 02:39:40;;;;;;;18.17;9.70;;;;;;;;;;8426248;28;20040;-83
2023/03/06 02:43:47;;;;;;;16.67;8.85;;;;;;;;;;8419585;28;20039;-83
2023/03/06 02:47:50;;;;;;;19.63;8.70;;;;;;;;;;8427310;28;20507;-89
2023/03/06 02:51:53;;;;;;;17.67;7.75;;;;;;;;;;8427692;28;20052;-83
2023/03/06 02:55:56;;;;;;;21.10;8.63;;;;;;;;;;8419503;28;20044;-86
2023/03/06 03:00:00;;;;;;;18.98;8.13;;;;;;;;;;8427325;28;20061;-81
2023/03/06 03:04:03;;;;;;;19.75;7.88;;;;;;;;;;8415281;28;20405;-82
2023/03/06 03:08:06;;;;;;;18.73;8.38;;;;;;;;;;8422390;28;20040;-81
2023/03/06 03:12:10;;;;;;;18.50;7.65;;;;;;;;;;8421845;28;20044;-80
2023/03/06 03:16:15;;;;;;;17.63;7.40;;;;;;;;;;8413407;28;20039;-81
2023/03/06 03:20:20;;;;;;;22.58;8.20;;;;;;;;;;8435716;28;20589;-80
2023/03/06 03:24:23;;;;;;;17.88;7.10;;;;;;;;;;8427446;28;20373;-81
2023/03/06 03:28:25;;;;;;;24.73;8.20;;;;;;;;;;8429283;28;20479;-83
2023/03/06 03:32:30;;;;;;;14.82;7.07;;;;;;;;;;8434454;28;20097;-81
2023/03/06 03:36:32;;;;;;;16.48;7.85;;;;;;;;;;8434432;28;20051;-81
2023/03/06 03:40:35;;;;;;;22.20;9.57;;;;;;;;;;8434095;28;20044;-80
2023/03/06 03:44:38;;;;;;;21.48;9.02;;;;;;;;;;8433940;28;20044;-83
2023/03/06 03:48:42;;;;;;;25.13;7.93;;;;;;;;;;8433625;28;20055;-80
2023/03/06 03:52:45;;;;;;;13.77;6.10;;;;;;;;;;8434299;28;20471;-81
2023/03/06 03:56:48;;;;;;;20.08;8.45;;;;;;;;;;8433350;28;20036;-82
2023/03/06 04:00:51;;;;;;;23.73;8.48;;;;;;;;;;8433025;28;20046;-82
2023/03/06 04:04:55;;;;;;;23.17;7.60;;;;;;;;;;8433336;28;20048;-81
2023/03/06 04:08:58;;;;;;;28.30;12.23;;;;;;;;;;8433279;28;20117;-81
2023/03/06 04:13:01;;;;;;;24.98;10.68;;;;;;;;;;8433287;28;20437;-80
2023/03/06 04:17:04;;;;;;;23.35;11.30;;;;;;;;;;8432754;28;20040;-82
2023/03/06 04:21:09;;;;;;;20.05;9.25;;;;;;;;;;8432944;28;20055;-81
2023/03/06 04:25:12;;;;;;;24.30;9.95;;;;;;;;;;8432798;28;20059;-81
2023/03/06 04:29:15;;;;;;;42.88;17.70;;;;;;;;;;8412972;28;20056;-82
2023/03/06 04:33:18;;;;;;;20.60;8.73;;;;;;;;;;8423238;28;20044;-83
2023/03/06 04:37:24;;;;;;;15.90;7.53;;;;;;;;;;8432599;28;20048;-81
2023/03/06 04:41:27;;;;;;;17.35;7.18;;;;;;;;;;8432649;28;20044;-80
2023/03/06 04:45:31;;;;;;;19.88;7.47;;;;;;;;;;8411383;28;20557;-80
2023/03/06 04:49:34;;;;;;;15.60;7.60;;;;;;;;;;8431670;28;20059;-82
2023/03/06 04:53:38;;;;;;;21.65;8.32;;;;;;;;;;8418510;28;20094;-82
2023/03/06 04:57:43;;;;;;;20.55;8.60;;;;;;;;;;8431819;28;20071;-82
2023/03/06 05:01:46;;;;;;;19.70;6.50;;;;;;;;;;8431571;28;20540;-81
2023/03/06 05:05:48;;;;;;;16.13;7.38;;;;;;;;;;8432099;28;20048;-80
2023/03/06 05:09:53;;;;;;;18.20;8.88;;;;;;;;;;8409845;28;20049;-82
2023/03/06 05:13:56;;;;;;;18.48;8.63;;;;;;;;;;8422809;28;20051;-81
2023/03/06 05:17:59;;;;;;;19.20;8.18;;;;;;;;;;8417423;28;20464;-82
2023/03/06 05:22:02;;;;;;;17.55;8.57;;;;;;;;;;8424474;28;20044;-83
2023/03/06 05:26:08;;;;;;;16.05;6.97;;;;;;;;;;8428540;28;20056;-80
2023/03/06 05:30:14;;;;;;;18.42;8.18;;;;;;;;;;8430818;28;20054;-79
2023/03/06 05:34:17;;;;;;;17.90;8.73;;;;;;;;;;8430635;28;20434;-81
2023/03/06 05:38:21;;;;;;;19.23;8.10;;;;;;;;;;8408443;28;20043;-82
2023/03/06 05:42:27;;;;;;;25.50;9.32;;;;;;;;;;8430718;28;20048;-82
2023/03/06 05:46:30;;;;;;;24.55;10.23;;;;;;;;;;8430637;28;20048;-83
2023/03/06 05:50:33;;;;;;;48.53;20.52;;;;;;;;;;8427210;28;20062;-81
2023/03/06 05:54:37;;;;;;;36.03;17.90;;;;;;;;;;8416635;28;20388;-80
2023/03/06 05:58:41;;;;;;;28.25;10.07;;;;;;;;;;8414017;28;20051;-90
2023/03/06 06:02:44;;;;;;;32.45;10.73;;;;;;;;;;8417781;28;20525;-83
2023/03/06 06:06:52;;;;;;;24.77;10.38;;;;;;;;;;8422721;28;20075;-81
2023/03/06 06:10:54;;;;;;;23.55;10.30;;;;;;;;;;8428555;28;20052;-82
2023/03/06 06:14:59;;;;;;;19.05;7.78;;;;;;;;;;8428905;28;20048;-81
2023/03/06 06:19:01;;;;;;;25.02;11.05;;;;;;;;;;8412741;28;20040;-81
2023/03/06 06:23:04;;;;;;;28.83;13.20;;;;;;;;;;8422000;28;20052;-82
2023/03/06 06:27:08;;;;;;;20.23;9.63;;;;;;;;;;8428242;28;20132;-82
2023/03/06 06:31:13;;;;;;;18.83;8.93;;;;;;;;;;8407687;28;20054;-82
2023/03/06 06:35:16;;;;;;;19.05;9.18;;;;;;;;;;8395610;28;20040;-82
2023/03/06 06:39:20;;;;;;;19.98;8.90;;;;;;;;;;8400693;28;20048;-81
2023/03/06 06:43:28;;;;;;;18.77;9.52;;;;;;;;;;8394296;28;20045;-91
2023/03/06 06:47:33;;;;;;;19.00;9.38;;;;;;;;;;8397333;28;20040;-82
2023/03/06 06:51:36;;;;;;;25.92;12.18;;;;;;;;;;8423621;28;20499;-81
2023/03/06 06:55:39;;;;;;;18.55;8.80;;;;;;;;;;8410205;28;20116;-82
2023/03/06 06:59:42;;;;;;;21.45;9.73;;;;;;;;;;8428266;28;20161;-83
2023/03/06 07:03:46;;;;;;;20.17;9.55;;;;;;;;;;8426088;28;20306;-82
2023/03/06 07:07:50;;;;;;;31.63;13.43;;;;;;;;;;8426652;28;20165;-81
2023/03/06 07:11:53;;;;;;;17.27;9.70;;;;;;;;;;8425796;28;20059;-81
2023/03/06 07:15:55;;;;;;;23.73;10.68;;;;;;;;;;8427433;28;20453;-83
2023/03/06 07:20:00;;;;;;;24.58;9.68;;;;;;;;;;8428200;28;20046;-82
2023/03/06 07:24:03;;;;;;;21.58;8.82;;;;;;;;;;8428680;28;20437;-82
2023/03/06 07:28:06;;;;;;;15.95;7.38;;;;;;;;;;8427988;28;20044;-81
2023/03/06 07:32:09;;;;;;;27.27;11.07;;;;;;;;;;8428487;28;20044;-81
2023/03/06 07:36:14;;;;;;;20.33;8.50;;;;;;;;;;8431518;28;20157;-81
2023/03/06 07:40:18;;;;;;;27.42;11.45;;;;;;;;;;8434438;28;20047;-81
2023/03/06 07:44:21;;;;;;;16.05;7.07;;;;;;;;;;8433972;28;20479;-81
2023/03/06 07:48:24;;;;;;;19.95;6.93;;;;;;;;;;8433927;28;20059;-81
2023/03/06 07:52:30;;;;;;;24.05;10.82;;;;;;;;;;8420096;28;20048;-83
2023/03/06 07:56:33;;;;;;;25.50;10.93;;;;;;;;;;8433933;28;20046;-83
2023/03/06 08:00:36;;;;;;;28.02;11.35;;;;;;;;;;8433943;28;20048;-82
2023/03/06 08:04:39;;;;;;;19.17;9.52;;;;;;;;;;8420843;28;20048;-81
2023/03/06 08:08:45;;;;;;;13.07;5.82;;;;;;;;;;8431428;28;20048;-82
2023/03/06 08:12:48;;;;;;;31.42;12.88;;;;;;;;;;8431019;28;20094;-83
2023/03/06 08:16:51;;;;;;;24.50;10.85;;;;;;;;;;8431198;28;20050;-82
2023/03/06 08:21:02;;;;;;;21.42;10.10;;;;;;;;;;8402534;28;20098;-83
2023/03/06 08:25:08;;;;;;;10.98;5.72;;;;;;;;;;8415431;28;20130;-83
2023/03/06 08:29:12;;;;;;;25.05;10.65;;;;;;;;;;8406403;28;20040;-81
2023/03/06 08:33:15;;;;;;;19.98;8.90;;;;;;;;;;8424582;28;20174;-83
2023/03/06 08:37:18;;;;;;;20.02;9.13;;;;;;;;;;8412350;28;20044;-82
2023/03/06 08:41:23;;;;;;;24.52;9.32;;;;;;;;;;8431106;28;20544;-81
2023/03/06 08:45:26;;;;;;;25.20;10.27;;;;;;;;;;8399854;28;20131;-82
2023/03/06 08:49:29;;;;;;;7.95;4.47;;;;;;;;;;8428187;28;20396;-82
2023/03/06 08:53:32;;;;;;;17.80;8.10;;;;;;;;;;8423905;28;20156;-83
2023/03/06 08:57:37;;;;;;;20.02;9.80;;;;;;;;;;8426880;28;20047;-83
2023/03/06 09:01:40;;;;;;;20.55;10.65;;;;;;;;;;8427054;28;20048;-82
2023/03/06 09:05:43;;;;;;;28.45;12.07;;;;;;;;;;8431094;28;20043;-83
2023/03/06 09:09:46;;;;;;;22.08;10.57;;;;;;;;;;8430325;28;20044;-83
2023/03/06 09:13:52;;;;;;;33.75;11.13;;;;;;;;;;8431548;28;20040;-83
2023/03/06 09:17:55;;;;;;;22.48;10.02;;;;;;;;;;8431917;28;20044;-84
2023/03/06 09:21:59;;;;;;;28.17;12.15;;;;;;;;;;8404792;28;20086;-84
2023/03/06 09:26:03;;;;;;;25.77;11.02;;;;;;;;;;8429881;28;20051;-82
2023/03/06 09:30:09;;;;;;;24.45;10.98;;;;;;;;;;8405092;28;20563;-84
2023/03/06 09:34:12;;;;;;;29.50;12.70;;;;;;;;;;8430316;28;20044;-83
2023/03/06 09:38:15;;;;;;;27.15;12.15;;;;;;;;;;8431330;28;20497;-85
2023/03/06 09:42:22;;;;;;;28.23;12.55;;;;;;;;;;8431035;28;20376;-82
2023/03/06 09:46:33;;;;;;;33.78;14.07;;;;;;;;;;8406731;28;20449;-82
2023/03/06 09:50:44;;;;;;;47.30;19.03;;;;;;;;;;8430490;28;20064;-82
2023/03/06 09:54:52;;;;;;;34.35;13.88;;;;;;;;;;8430760;28;20393;-83
2023/03/06 09:59:00;;;;;;;44.13;16.48;;;;;;;;;;8429414;28;20036;-82
2023/03/06 10:03:15;;;;;;;30.27;13.95;;;;;;;;;;8430856;28;20468;-84
2023/03/06 10:07:22;;;;;;;30.60;12.40;;;;;;;;;;8430232;28;20115;-82
2023/03/06 10:11:32;;;;;;;26.88;11.00;;;;;;;;;;8430227;28;20048;-82
2023/03/06 10:15:38;;;;;;;42.67;18.33;;;;;;;;;;8430019;28;20127;-81
2023/03/06 10:19:42;;;;;;;38.78;17.67;;;;;;;;;;8429703;28;20068;-82
2023/03/06 10:23:52;;;;;;;32.78;15.35;;;;;;;;;;8429642;28;20050;-83
2023/03/06 10:28:02;;;;;;;28.92;14.82;;;;;;;;;;8430024;28;20115;-83
2023/03/06 10:32:12;;;;;;;26.15;13.55;;;;;;;;;;8429529;28;20048;-82
2023/03/06 10:36:18;;;;;;;24.92;13.48;;;;;;;;;;8429230;28;20040;-82
2023/03/06 10:40:25;;;;;;;32.75;17.77;;;;;;;;;;8429534;28;20064;-83
2023/03/06 10:44:31;;;;;;;32.60;14.38;;;;;;;;;;8429584;28;20377;-82
2023/03/06 10:48:36;;;;;;;25.25;14.15;;;;;;;;;;8429264;28;20056;-82
2023/03/06 10:52:40;;;;;;;24.75;12.10;;;;;;;;;;8429391;28;20048;-81
2023/03/06 10:56:44;;;;;;;29.35;13.98;;;;;;;;;;8415671;28;20127;-83
2023/03/06 11:00:47;;;;;;;25.17;12.35;;;;;;;;;;8428805;28;20063;-82
2023/03/06 11:04:53;;;;;;;14.50;7.95;;;;;;;;;;8429338;28;20089;-82
2023/03/06 11:09:15;;;;;;;35.22;15.68;;;;;;;;;;8429313;28;20044;-82
2023/03/06 11:13:21;;;;;;;;;;;;;;;;;;8436674;28;20052;-81
2023/03/06 11:17:28;;;;;;;29.98;14.73;;;;;;;;;;8436383;28;19927;-81
2023/03/06 11:21:33;;;;;;;24.38;13.88;;;;;;;;;;8435191;28;20419;-82
2023/03/06 11:25:43;;;;;;;29.13;13.15;;;;;;;;;;8436794;28;20067;-83
2023/03/06 11:29:49;;;;;;;34.13;18.67;;;;;;;;;;8435666;28;20044;-83
2023/03/06 11:33:58;;;;;;;21.15;11.02;;;;;;;;;;8435510;28;20097;-83
2023/03/06 11:38:07;;;;;;;17.17;11.00;;;;;;;;;;8435276;28;20519;-81
2023/03/06 11:42:20;;;;;;;24.05;13.35;;;;;;;;;;8435285;28;20044;-82
2023/03/06 11:46:28;;;;;;;22.25;12.27;;;;;;;;;;8411614;28;20479;-81
2023/03/06 11:50:36;;;;;;;13.90;8.35;;;;;;;;;;8435232;28;20123;-80
2023/03/06 11:54:39;;;;;;;15.93;10.10;;;;;;;;;;8435080;28;20044;-80
2023/03/06 11:59:05;;;;;;;13.88;7.15;;;;;;;;;;8435112;28;20474;-80
2023/03/06 12:03:27;;;;;;;16.10;9.52;;;;;;;;;;8434639;28;20063;-81
2023/03/06 12:07:33;;;;;;;28.52;13.07;;;;;;;;;;8435273;28;20123;-81
2023/03/06 12:11:44;;;;;;;34.00;17.40;;;;;;;;;;8435114;28;20048;-81
2023/03/06 12:16:06;;;;;;;25.13;13.05;;;;;;;;;;8435299;28;20055;-80
2023/03/06 12:20:33;;;;;;;17.33;9.30;;;;;;;;;;8434101;28;20512;-80
2023/03/06 12:25:01;;;;;;;14.82;7.57;;;;;;;;;;8417675;28;20046;-80
2023/03/06 12:29:18;;;;;;;17.42;8.60;;;;;;;;;;8424757;28;20128;-80
2023/03/06 12:33:33;;;;;;;11.25;6.57;;;;;;;;;;8419749;28;20044;-80
2023/03/06 12:37:50;;;;;;;12.00;6.85;;;;;;;;;;8434343;28;20074;-79
2023/03/06 12:42:06;;;;;;;10.95;6.70;;;;;;;;;;8396003;28;20046;-80
2023/03/06 12:46:13;;;;;;;14.63;6.28;;;;;;;;;;8433561;28;20048;-80
2023/03/06 12:50:22;;;;;;;17.95;9.68;;;;;;;;;;8432988;28;20056;-80
2023/03/06 12:54:28;;;;;;;12.50;6.85;;;;;;;;;;8433929;28;20048;-80
2023/03/06 12:58:36;;;;;;;8.93;5.68;;;;;;;;;;8433191;28;20047;-81
2023/03/06 13:03:13;;;;;;;11.98;6.47;;;;;;;;;;8432935;28;20052;-80
2023/03/06 13:07:37;;;;;;;15.55;7.72;;;;;;;;;;8419616;28;20079;-80
2023/03/06 13:12:13;;;;;;;22.92;9.75;;;;;;;;;;8432732;28;20093;-78
2023/03/06 13:16:24;;;;;;;13.07;7.22;;;;;;;;;;8423250;28;20083;-80
2023/03/06 13:20:34;;;;;;;14.43;7.33;;;;;;;;;;8432467;28;20044;-80
2023/03/06 13:24:38;;;;;;;9.70;5.50;;;;;;;;;;8432502;28;20298;-80
2023/03/06 13:28:48;;;;;;;15.68;7.70;;;;;;;;;;8432766;28;20048;-80
2023/03/06 13:32:52;;;;;;;15.55;8.18;;;;;;;;;;8430245;28;20044;-80
2023/03/06 13:37:37;;;;;;;8.98;5.72;;;;;;;;;;8431667;28;20050;-80
2023/03/06 13:41:59;;;;;;;9.52;5.88;;;;;;;;;;8432050;28;20052;-81
2023/03/06 13:46:23;;;;;;;11.00;6.10;;;;;;;;;;8431445;28;20040;-79
2023/03/06 13:50:34;;;;;;;9.43;5.90;;;;;;;;;;8431499;28;20131;-81
2023/03/06 13:54:49;;;;;;;11.52;6.43;;;;;;;;;;8430995;28;20047;-80
2023/03/06 13:59:11;;;;;;;11.55;6.00;;;;;;;;;;8429027;28;20047;-81
2023/03/06 14:03:52;;;;;;;14.07;6.93;;;;;;;;;;8430272;28;20044;-80
2023/03/06 14:08:05;;;;;;;18.45;7.45;;;;;;;;;;8429553;28;20048;-80
2023/03/06 14:12:17;;;;;;;16.63;7.43;;;;;;;;;;8430001;28;20040;-80
2023/03/06 14:16:24;;;;;;;11.60;5.70;;;;;;;;;;8399440;28;20057;-84
2023/03/06 14:20:34;;;;;;;16.75;7.65;;;;;;;;;;8385422;28;20481;-80
2023/03/06 14:24:41;;;;;;;9.65;5.90;;;;;;;;;;8381268;28;20585;-80
2023/03/06 14:28:46;;;;;;;13.55;6.13;;;;;;;;;;8397696;28;20056;-82
2023/03/06 14:32:52;;;;;;;12.77;5.57;;;;;;;;;;8385987;28;20512;-81
2023/03/06 14:37:00;;;;;;;16.63;8.50;;;;;;;;;;8390759;28;20551;-80
2023/03/06 14:41:05;;;;;;;12.27;6.93;;;;;;;;;;8392374;28;20101;-81
2023/03/06 14:45:16;;;;;;;13.88;7.00;;;;;;;;;;8398564;28;20048;-80
2023/03/06 14:49:22;;;;;;;21.35;9.32;;;;;;;;;;8387720;28;20071;-80
2023/03/06 14:53:29;;;;;;;20.13;9.27;;;;;;;;;;8400456;28;20044;-81
2023/03/06 14:57:32;;;;;;;17.85;8.40;;;;;;;;;;8391728;28;20110;-80
2023/03/06 15:01:40;;;;;;;14.57;7.53;;;;;;;;;;8404014;28;20070;-80
2023/03/06 15:05:46;;;;;;;18.52;8.85;;;;;;;;;;8422801;28;20047;-79
2023/03/06 15:09:51;;;;;;;18.75;9.38;;;;;;;;;;8439491;28;20127;-79
2023/03/06 15:14:02;;;;;;;14.10;7.63;;;;;;;;;;8440482;28;20471;-80
2023/03/06 15:18:29;;;;;;;12.80;6.20;;;;;;;;;;8377839;28;20128;-80
2023/03/06 15:22:37;;;;;;;14.02;7.43;;;;;;;;;;8402137;28;20123;-79
2023/03/06 15:26:41;;;;;;;14.93;6.78;;;;;;;;;;8405281;28;20051;-83
2023/03/06 15:31:20;;;;;;;10.93;6.82;;;;;;;;;;8407012;28;20048;-79
2023/03/06 15:35:33;;;;;;;33.42;19.55;;;;;;;;;;8404187;28;20045;-80
2023/03/06 15:39:42;;;;;;;36.38;20.60;;;;;;;;;;8415658;28;20108;-81
2023/03/06 15:43:50;;;;;;;29.67;18.48;;;;;;;;;;8401102;28;20049;-79
2023/03/06 15:47:55;;;;;;;17.30;10.57;;;;;;;;;;8382487;28;20048;-81
2023/03/06 15:51:59;;;;;;;19.95;12.13;;;;;;;;;;8392964;28;20041;-80
2023/03/06 15:56:04;;;;;;;22.42;13.32;;;;;;;;;;8398455;28;20044;-78
2023/03/06 16:00:22;;;;;;;16.38;9.07;;;;;;;;;;8396173;28;20048;-79
2023/03/06 16:04:36;;;;;;;17.02;9.40;;;;;;;;;;8397702;28;20048;-81
2023/03/06 16:08:45;;;;;;;22.20;12.85;;;;;;;;;;8386464;28;20044;-81
2023/03/06 16:13:02;;;;;;;23.00;12.85;;;;;;;;;;8390307;28;20052;-81
2023/03/06 16:17:11;;;;;;;28.00;13.60;;;;;;;;;;8383193;28;20044;-83
2023/03/06 16:21:30;;;;;;;32.65;16.88;;;;;;;;;;8387313;28;20047;-85
2023/03/06 16:25:53;;;;;;;23.98;10.65;;;;;;;;;;8379693;28;20057;-81
2023/03/06 16:30:08;;;;;;;24.23;11.55;;;;;;;;;;8387710;28;20131;-80
2023/03/06 16:34:12;;;;;;;32.05;14.18;;;;;;;;;;8398338;28;20052;-83
2023/03/06 16:38:15;;;;;;;88.18;35.63;;;;;;;;;;8377219;28;20094;-82
2023/03/06 16:42:24;;;;;;;56.65;28.25;;;;;;;;;;8394224;28;20564;-81
2023/03/06 16:46:32;;;;;;;38.53;18.35;;;;;;;;;;8388164;28;20140;-82
2023/03/06 16:50:38;;;;;;;68.18;32.33;;;;;;;;;;8378719;28;20496;-81
2023/03/06 16:54:42;;;;;;;24.60;11.57;;;;;;;;;;8406179;28;20047;-81
2023/03/06 16:58:46;;;;;;;28.75;12.18;;;;;;;;;;8419889;28;20051;-90
2023/03/06 17:02:53;;;;;;;26.48;11.93;;;;;;;;;;8419033;28;20059;-80
2023/03/06 17:07:00;;;;;;;21.90;10.40;;;;;;;;;;8425491;28;20059;-94
2023/03/06 17:11:05;;;;;;;20.85;10.38;;;;;;;;;;8412716;28;20140;-81
2023/03/06 17:15:14;;;;;;;25.98;12.70;;;;;;;;;;8404769;28;20131;-81
2023/03/06 17:19:29;;;;;;;62.88;25.70;;;;;;;;;;8415397;28;20457;-86
2023/03/06 17:23:34;;;;;;;31.48;16.02;;;;;;;;;;8394824;28;20044;-81
2023/03/06 17:27:39;;;;;;;37.13;16.50;;;;;;;;;;8393431;28;20405;-80
2023/03/06 17:31:42;;;;;;;43.10;17.73;;;;;;;;;;8386149;28;20048;-81
2023/03/06 17:35:57;;;;;;;28.45;14.77;;;;;;;;;;8382763;28;20044;-82
2023/03/06 17:40:01;;;;;;;41.38;19.70;;;;;;;;;;8371906;28;20041;-89
2023/03/06 17:44:05;;;;;;;60.75;29.83;;;;;;;;;;8376231;28;20044;-81
2023/03/06 17:48:09;;;;;;;96.03;46.22;;;;;;;;;;8391198;28;20048;-80
2023/03/06 17:52:15;;;;;;;25.30;13.55;;;;;;;;;;8381161;28;20096;-81
2023/03/06 17:56:21;;;;;;;20.02;10.10;;;;;;;;;;8374739;28;20044;-81
2023/03/06 18:00:25;;;;;;;25.17;13.55;;;;;;;;;;8387525;28;20120;-81
2023/03/06 18:04:33;;;;;;;34.50;17.63;;;;;;;;;;8374748;28;20075;-80
2023/03/06 18:08:40;;;;;;;39.33;18.75;;;;;;;;;;8374016;28;20044;-83
2023/03/06 18:12:44;;;;;;;47.63;22.23;;;;;;;;;;8384876;28;20404;-85
2023/03/06 18:16:48;;;;;;;22.67;11.02;;;;;;;;;;8387442;28;20040;-82
2023/03/06 18:20:53;;;;;;;49.00;20.30;;;;;;;;;;8386076;28;20052;-83
2023/03/06 18:25:00;;;;;;;24.40;11.93;;;;;;;;;;8382562;28;20052;-81
2023/03/06 18:29:05;;;;;;;44.78;19.05;;;;;;;;;;8378348;28;20481;-80
2023/03/06 18:33:10;;;;;;;43.03;18.60;;;;;;;;;;8377799;28;20085;-81
2023/03/06 18:37:15;;;;;;;45.40;18.23;;;;;;;;;;8399980;28;20050;-83
2023/03/06 18:41:23;;;;;;;34.88;15.43;;;;;;;;;;8376744;28;20053;-81
2023/03/06 18:45:30;;;;;;;46.50;19.75;;;;;;;;;;8383515;28;20041;-82
2023/03/06 18:49:36;;;;;;;36.70;16.95;;;;;;;;;;8365996;28;20119;-82
2023/03/06 18:53:43;;;;;;;32.25;14.07;;;;;;;;;;8382411;28;20532;-83
2023/03/06 18:57:49;;;;;;;27.17;13.57;;;;;;;;;;8381227;28;20059;-84
2023/03/06 19:01:56;;;;;;;26.30;12.75;;;;;;;;;;8377429;28;20044;-81
2023/03/06 19:06:05;;;;;;;41.80;19.50;;;;;;;;;;8380301;28;20044;-82
2023/03/06 19:10:14;;;;;;;20.38;10.32;;;;;;;;;;8369886;28;20052;-82
2023/03/06 19:14:21;;;;;;;35.35;17.83;;;;;;;;;;8375107;28;20424;-82
2023/03/06 19:18:28;;;;;;;15.85;9.45;;;;;;;;;;8372859;28;20102;-82
2023/03/06 19:22:36;;;;;;;31.05;15.30;;;;;;;;;;8395777;28;20048;-81
2023/03/06 19:26:41;;;;;;;32.72;16.10;;;;;;;;;;8368408;28;20044;-82
2023/03/06 19:30:47;;;;;;;18.10;9.02;;;;;;;;;;8372952;28;20064;-82
2023/03/06 19:34:57;;;;;;;29.20;13.32;;;;;;;;;;8394422;28;20052;-82
2023/03/06 19:39:03;;;;;;;29.85;13.95;;;;;;;;;;8391875;28;20052;-81
2023/03/06 19:43:08;;;;;;;30.40;13.23;;;;;;;;;;8382760;28;20114;-82
2023/03/06 19:47:20;;;;;;;26.55;12.40;;;;;;;;;;8378209;28;20464;-82
2023/03/06 19:51:35;;;;;;;21.88;11.40;;;;;;;;;;8308893;28;20046;-82
2023/03/06 19:55:40;;;;;;;27.95;13.50;;;;;;;;;;8316301;28;20076;-81
2023/03/06 19:59:45;;;;;;;14.82;5.95;;;;;;;;;;8330813;28;20045;-82
2023/03/06 20:03:57;;;;;;;25.52;12.60;;;;;;;;;;8322935;28;20519;-84
2023/03/06 20:08:04;;;;;;;26.08;11.10;;;;;;;;;;8316529;28;20481;-85
2023/03/06 20:12:09;;;;;;;22.73;10.82;;;;;;;;;;8319733;28;20053;-81
2023/03/06 20:16:14;;;;;;;25.42;12.20;;;;;;;;;;8320813;28;20053;-85
2023/03/06 20:20:24;;;;;;;22.52;10.43;;;;;;;;;;8322495;28;20049;-84
2023/03/06 20:24:29;;;;;;;25.80;11.95;;;;;;;;;;8317072;28;20058;-83
2023/03/06 20:28:34;;;;;;;16.15;8.93;;;;;;;;;;8318111;28;20053;-81
2023/03/06 20:32:38;;;;;;;17.92;9.65;;;;;;;;;;8315276;28;20078;-82
2023/03/06 20:36:49;;;;;;;18.17;9.57;;;;;;;;;;8313060;28;20052;-83
2023/03/06 20:40:54;;;;;;;26.77;12.82;;;;;;;;;;8310951;28;20165;-82
2023/03/06 20:44:59;;;;;;;26.10;11.45;;;;;;;;;;8327689;28;20041;-83
2023/03/06 20:49:04;;;;;;;23.60;11.65;;;;;;;;;;8343890;28;20067;-83
2023/03/06 20:53:10;;;;;;;30.65;13.20;;;;;;;;;;8398288;28;20045;-85
2023/03/06 20:57:16;;;;;;;24.92;11.68;;;;;;;;;;8392314;28;20059;-83
2023/03/06 21:01:20;;;;;;;39.03;17.27;;;;;;;;;;8375426;28;20067;-83
2023/03/06 21:05:25;;;;;;;26.08;11.88;;;;;;;;;;8391821;28;20056;-82
2023/03/06 21:09:33;;;;;;;24.70;11.20;;;;;;;;;;8375277;28;20060;-83
2023/03/06 21:13:36;;;;;;;28.20;12.90;;;;;;;;;;8377580;28;20468;-83
2023/03/06 21:17:41;;;;;;;31.50;14.50;;;;;;;;;;8381698;28;20182;-83
2023/03/06 21:21:45;;;;;;;26.52;14.00;;;;;;;;;;8375165;28;20502;-83
2023/03/06 21:25:52;;;;;;;40.08;18.25;;;;;;;;;;8384736;28;20131;-83
2023/03/06 21:29:55;;;;;;;27.40;13.38;;;;;;;;;;8384020;28;20063;-83
2023/03/06 21:33:59;;;;;;;38.72;16.13;;;;;;;;;;8389330;28;20068;-83
2023/03/06 21:38:02;;;;;;;27.88;13.82;;;;;;;;;;8387289;28;20055;-86
2023/03/06 21:42:06;;;;;;;40.38;18.33;;;;;;;;;;8391307;28;20131;-83
2023/03/06 21:46:10;;;;;;;35.60;17.10;;;;;;;;;;8385514;28;20049;-84
2023/03/06 21:50:13;;;;;;;32.72;14.52;;;;;;;;;;8395153;28;20176;-81
2023/03/06 21:54:16;;;;;;;38.17;18.10;;;;;;;;;;8378949;28;20068;-84
2023/03/06 21:58:21;;;;;;;38.00;14.50;;;;;;;;;;8376786;28;20091;-83
2023/03/06 22:02:24;;;;;;;32.50;14.85;;;;;;;;;;8386370;28;20424;-84
2023/03/06 22:06:28;;;;;;;37.90;15.23;;;;;;;;;;8385898;28;20064;-82
2023/03/06 22:10:31;;;;;;;34.97;15.77;;;;;;;;;;8370687;28;20053;-81
2023/03/06 22:14:36;;;;;;;26.95;12.43;;;;;;;;;;8371450;28;20537;-81
2023/03/06 22:18:39;;;;;;;38.95;17.55;;;;;;;;;;8380760;28;20048;-82
2023/03/06 22:22:42;;;;;;;44.15;16.98;;;;;;;;;;8385879;28;20041;-82
2023/03/06 22:26:45;;;;;;;45.53;18.20;;;;;;;;;;8382972;28;20770;-81
2023/03/06 22:30:49;;;;;;;40.65;16.33;;;;;;;;;;8367756;28;20560;-82
2023/03/06 22:34:52;;;;;;;27.75;11.55;;;;;;;;;;8382759;28;20048;-81
2023/03/06 22:38:57;;;;;;;37.15;16.05;;;;;;;;;;8382065;28;20045;-81
2023/03/06 22:43:00;;;;;;;57.53;16.80;;;;;;;;;;8387413;28;20045;-81
2023/03/06 22:47:05;;;;;;;32.45;13.23;;;;;;;;;;8388644;28;20109;-81
2023/03/06 22:51:10;;;;;;;42.60;17.88;;;;;;;;;;8361241;28;20067;-82
2023/03/06 22:55:13;;;;;;;38.70;16.10;;;;;;;;;;8377794;28;20049;-82
2023/03/06 22:59:16;;;;;;;40.47;15.68;;;;;;;;;;8380963;28;20138;-82
2023/03/06 23:03:20;;;;;;;39.10;16.70;;;;;;;;;;8369439;28;20076;-82
2023/03/06 23:07:23;;;;;;;44.22;18.40;;;;;;;;;;8383313;28;20052;-82
2023/03/06 23:11:27;;;;;;;38.78;16.52;;;;;;;;;;8389852;28;20049;-84
2023/03/06 23:15:31;;;;;;;45.50;17.10;;;;;;;;;;8383951;28;20052;-84
2023/03/06 23:19:35;;;;;;;60.00;23.55;;;;;;;;;;8388345;28;20047;-82
2023/03/06 23:23:39;;;;;;;55.95;22.42;;;;;;;;;;8432776;28;20627;-80
2023/03/06 23:27:42;;;;;;;54.65;21.30;;;;;;;;;;8435008;28;20512;-81
2023/03/06 23:31:45;;;;;;;45.45;17.27;;;;;;;;;;8435098;28;20071;-79
2023/03/06 23:35:50;;;;;;;47.33;19.50;;;;;;;;;;8433546;28;20051;-80
2023/03/06 23:39:53;;;;;;;54.63;18.67;;;;;;;;;;8427586;28;20044;-81
2023/03/06 23:43:56;;;;;;;46.25;18.58;;;;;;;;;;8428980;28;20127;-81
2023/03/06 23:47:59;;;;;;;48.22;19.23;;;;;;;;;;8434947;28;20511;-81
2023/03/06 23:52:03;;;;;;;58.53;20.90;;;;;;;;;;8434421;28;20127;-81
2023/03/06 23:56:07;;;;;;;46.55;18.05;;;;;;;;;;8419645;28;20131;-82
